createdAt,value
2023-04-07T00:00:37.199Z,15.45
2023-04-07T00:03:07.298Z,19.63
2023-04-07T00:05:35.876Z,21.38
2023-04-07T00:08:05.541Z,21.10
2023-04-07T00:10:33.772Z,19.67
2023-04-07T00:13:02.114Z,20.35
2023-04-07T00:15:30.940Z,18.40
2023-04-07T00:17:59.203Z,28.95
2023-04-07T00:20:27.560Z,25.45
2023-04-07T00:22:55.862Z,26.25
2023-04-07T00:25:25.593Z,25.95
2023-04-07T00:27:53.934Z,22.30
2023-04-07T00:30:22.458Z,27.45
2023-04-07T00:32:51.532Z,30.98
2023-04-07T00:35:20.378Z,37.35
2023-04-07T00:37:48.774Z,33.20
2023-04-07T00:40:18.171Z,33.50
2023-04-07T00:42:47.812Z,32.45
2023-04-07T00:45:16.148Z,38.80
2023-04-07T00:47:44.477Z,29.85
2023-04-07T00:50:13.188Z,37.42
2023-04-07T00:52:41.720Z,43.10
2023-04-07T00:55:10.976Z,30.88
2023-04-07T00:57:39.255Z,42.72
2023-04-07T01:00:19.691Z,39.53
2023-04-07T01:02:58.866Z,29.85
2023-04-07T01:05:37.722Z,37.25
2023-04-07T01:08:14.589Z,24.83
2023-04-07T01:10:51.154Z,38.08
2023-04-07T01:13:28.760Z,23.85
2023-04-07T01:16:02.044Z,27.88
2023-04-07T01:18:34.759Z,28.30
2023-04-07T01:21:08.499Z,21.02
2023-04-07T01:24:02.411Z,22.23
2023-04-07T01:26:32.345Z,28.27
2023-04-07T01:29:40.464Z,16.55
2023-04-07T01:32:12.730Z,27.63
2023-04-07T01:34:43.178Z,23.90
2023-04-07T01:37:12.969Z,27.52
2023-04-07T01:39:41.654Z,21.27
2023-04-07T01:42:10.302Z,27.70
2023-04-07T01:44:41.071Z,30.08
2023-04-07T01:47:10.041Z,26.42
2023-04-07T01:49:39.166Z,32.78
2023-04-07T01:52:08.929Z,30.80
2023-04-07T01:54:38.067Z,34.60
2023-04-07T01:57:06.351Z,29.23
2023-04-07T01:59:34.639Z,32.75
2023-04-07T02:02:04.777Z,21.17
2023-04-07T02:04:39.677Z,31.88
2023-04-07T02:07:15.701Z,24.60
2023-04-07T02:09:48.201Z,32.03
2023-04-07T02:12:18.088Z,25.33
2023-04-07T02:14:46.699Z,36.70
2023-04-07T02:17:17.514Z,30.92
2023-04-07T02:19:47.782Z,31.30
2023-04-07T02:22:17.559Z,32.60
2023-04-07T02:24:45.744Z,30.08
2023-04-07T02:27:14.174Z,34.15
2023-04-07T02:29:42.413Z,23.05
2023-04-07T02:32:11.061Z,29.30
2023-04-07T02:34:40.938Z,28.05
2023-04-07T02:37:09.403Z,30.98
2023-04-07T02:39:37.723Z,31.20
2023-04-07T02:42:06.370Z,25.70
2023-04-07T02:44:34.773Z,28.60
2023-04-07T02:47:03.106Z,28.33
2023-04-07T02:49:31.345Z,27.05
2023-04-07T02:52:01.182Z,29.55
2023-04-07T02:54:29.505Z,25.38
2023-04-07T02:56:57.856Z,28.33
2023-04-07T02:59:26.147Z,29.25
2023-04-07T03:01:54.640Z,24.33
2023-04-07T03:04:23.653Z,24.42
2023-04-07T03:06:52.058Z,23.20
2023-04-07T03:09:21.663Z,20.13
2023-04-07T03:11:49.932Z,21.25
2023-04-07T03:14:18.220Z,28.50
2023-04-07T03:16:46.734Z,22.08
2023-04-07T03:19:16.365Z,25.90
2023-04-07T03:21:44.724Z,27.63
2023-04-07T03:24:13.004Z,30.55
2023-04-07T03:26:42.801Z,35.83
2023-04-07T03:29:11.058Z,42.95
2023-04-07T03:31:39.414Z,32.17
2023-04-07T03:34:07.769Z,42.28
2023-04-07T03:36:36.005Z,31.30
2023-04-07T03:39:04.409Z,30.65
2023-04-07T03:41:32.754Z,30.42
2023-04-07T03:44:02.351Z,29.98
2023-04-07T03:46:30.774Z,28.48
2023-04-07T03:48:58.990Z,29.83
2023-04-07T03:51:27.867Z,21.92
2023-04-07T03:53:56.371Z,22.40
2023-04-07T03:56:25.226Z,25.42
2023-04-07T03:58:54.280Z,23.48
2023-04-07T04:01:29.640Z,24.25
2023-04-07T04:06:27.299Z,32.78
2023-04-07T04:08:55.864Z,27.85
2023-04-07T04:11:24.572Z,28.17
2023-04-07T04:13:53.095Z,24.67
2023-04-07T04:16:23.232Z,24.90
2023-04-07T04:18:51.762Z,22.88
2023-04-07T04:21:20.243Z,25.73
2023-04-07T04:23:49.523Z,25.15
2023-04-07T04:26:17.855Z,28.27
2023-04-07T04:28:47.439Z,25.67
2023-04-07T04:31:16.078Z,18.85
2023-04-07T04:33:45.987Z,20.77
2023-04-07T04:36:14.503Z,25.45
2023-04-07T04:38:42.817Z,21.08
2023-04-07T04:41:11.407Z,24.15
2023-04-07T04:43:39.973Z,21.73
2023-04-07T04:46:08.412Z,27.27
2023-04-07T04:48:36.920Z,22.98
2023-04-07T04:51:07.135Z,18.23
2023-04-07T04:53:37.088Z,21.73
2023-04-07T04:56:06.298Z,23.15
2023-04-07T04:58:34.674Z,21.30
2023-04-07T05:01:03.225Z,27.38
2023-04-07T05:03:31.665Z,25.38
2023-04-07T05:06:00.063Z,28.52
2023-04-07T05:08:30.102Z,27.10
2023-04-07T05:10:59.051Z,33.58
2023-04-07T05:13:27.638Z,37.67
2023-04-07T05:15:56.155Z,26.58
2023-04-07T05:18:25.027Z,28.52
2023-04-07T05:20:56.477Z,25.83
2023-04-07T05:23:24.990Z,25.08
2023-04-07T05:25:54.902Z,28.23
2023-04-07T05:28:24.709Z,29.35
2023-04-07T05:30:53.054Z,28.42
2023-04-07T05:33:22.570Z,27.73
2023-04-07T05:35:53.216Z,27.90
2023-04-07T05:38:21.844Z,27.65
2023-04-07T05:40:51.507Z,19.02
2023-04-07T05:43:21.635Z,21.10
2023-04-07T05:45:50.130Z,26.25
2023-04-07T05:48:18.629Z,20.40
2023-04-07T05:50:47.031Z,20.20
2023-04-07T05:53:16.262Z,28.67
2023-04-07T05:55:45.215Z,31.70
2023-04-07T05:58:13.759Z,26.35
2023-04-07T06:00:43.736Z,26.02
2023-04-07T06:03:12.277Z,30.85
2023-04-07T06:05:43.617Z,29.38
2023-04-07T06:08:12.252Z,24.83
2023-04-07T06:10:41.591Z,22.45
2023-04-07T06:13:10.193Z,26.95
2023-04-07T06:15:38.819Z,32.92
2023-04-07T06:18:08.952Z,26.15
2023-04-07T06:20:37.953Z,21.67
2023-04-07T06:23:06.739Z,31.48
2023-04-07T06:25:35.327Z,25.75
2023-04-07T06:28:04.011Z,25.73
2023-04-07T06:30:33.298Z,29.73
2023-04-07T06:33:02.227Z,26.92
2023-04-07T06:35:32.122Z,29.13
2023-04-07T06:38:00.452Z,26.15
2023-04-07T06:40:28.806Z,24.95
2023-04-07T06:42:57.755Z,28.40
2023-04-07T06:45:26.539Z,35.67
2023-04-07T06:47:55.004Z,23.30
2023-04-07T06:50:23.710Z,27.17
2023-04-07T06:52:53.820Z,29.75
2023-04-07T06:55:22.046Z,24.50
2023-04-07T06:57:52.554Z,36.55
2023-04-07T07:00:23.055Z,29.50
2023-04-07T07:05:44.636Z,25.55
2023-04-07T07:08:14.433Z,21.45
2023-04-07T07:10:44.065Z,20.88
2023-04-07T07:13:12.333Z,32.10
2023-04-07T07:15:40.825Z,23.85
2023-04-07T07:18:09.164Z,27.00
2023-04-07T07:20:37.791Z,26.00
2023-04-07T07:23:06.349Z,38.20
2023-04-07T07:25:42.383Z,26.33
2023-04-07T07:28:11.329Z,31.75
2023-04-07T07:30:42.259Z,33.95
2023-04-07T07:33:10.893Z,24.40
2023-04-07T07:35:40.532Z,26.60
2023-04-07T07:38:09.169Z,23.92
2023-04-07T07:40:39.359Z,20.55
2023-04-07T07:43:07.891Z,20.75
2023-04-07T07:45:36.578Z,21.13
2023-04-07T07:48:05.199Z,19.33
2023-04-07T07:50:33.872Z,23.83
2023-04-07T07:53:02.778Z,19.27
2023-04-07T07:55:31.184Z,20.45
2023-04-07T07:58:00.952Z,22.42
2023-04-07T08:00:29.905Z,20.80
2023-04-07T08:02:58.536Z,18.77
2023-04-07T08:05:27.314Z,20.10
2023-04-07T08:07:55.926Z,14.25
2023-04-07T08:10:25.359Z,19.23
2023-04-07T08:12:53.721Z,19.88
2023-04-07T08:15:23.910Z,20.00
2023-04-07T08:17:54.614Z,19.98
2023-04-07T08:20:24.078Z,14.68
2023-04-07T08:22:52.755Z,12.02
2023-04-07T08:25:21.427Z,11.45
2023-04-07T08:27:50.037Z,15.63
2023-04-07T08:30:18.599Z,18.45
2023-04-07T08:32:49.005Z,17.70
2023-04-07T08:35:17.416Z,25.63
2023-04-07T08:37:46.223Z,16.30
2023-04-07T08:40:14.760Z,20.83
2023-04-07T08:42:47.675Z,20.80
2023-04-07T08:45:19.446Z,16.52
2023-04-07T08:47:54.258Z,18.05
2023-04-07T08:50:23.774Z,23.83
2023-04-07T08:52:57.235Z,18.40
2023-04-07T08:55:26.264Z,19.92
2023-04-07T08:57:55.683Z,16.10
2023-04-07T09:00:24.463Z,15.32
2023-04-07T09:02:54.735Z,22.48
2023-04-07T09:05:25.191Z,17.90
2023-04-07T09:07:53.443Z,19.65
2023-04-07T09:10:22.343Z,20.60
2023-04-07T09:12:51.028Z,18.70
2023-04-07T09:15:19.969Z,16.52
2023-04-07T09:17:49.092Z,19.17
2023-04-07T09:20:19.988Z,18.25
2023-04-07T09:22:50.484Z,20.23
2023-04-07T09:25:22.794Z,17.00
2023-04-07T09:28:02.434Z,13.32
2023-04-07T09:30:32.544Z,13.25
2023-04-07T09:33:02.485Z,18.17
2023-04-07T09:35:35.429Z,14.35
2023-04-07T09:38:05.809Z,13.93
2023-04-07T09:40:34.944Z,13.30
2023-04-07T09:43:05.294Z,14.25
2023-04-07T09:45:36.546Z,13.27
2023-04-07T09:48:09.716Z,20.40
2023-04-07T09:50:42.167Z,13.90
2023-04-07T09:53:10.657Z,11.13
2023-04-07T09:55:40.933Z,14.20
2023-04-07T09:58:13.195Z,10.95
2023-04-07T10:00:42.464Z,11.43
2023-04-07T10:03:11.147Z,15.63
2023-04-07T10:05:41.589Z,17.50
2023-04-07T10:08:12.414Z,15.48
2023-04-07T10:10:44.738Z,30.83
2023-04-07T10:13:14.356Z,20.85
2023-04-07T10:15:42.985Z,18.42
2023-04-07T10:18:11.568Z,16.50
2023-04-07T10:20:43.314Z,19.10
2023-04-07T10:23:20.504Z,14.43
2023-04-07T10:25:52.769Z,14.00
2023-04-07T10:28:24.917Z,18.77
2023-04-07T10:30:54.252Z,9.95
2023-04-07T10:33:48.604Z,22.58
2023-04-07T10:36:20.632Z,19.50
2023-04-07T10:39:24.208Z,11.95
2023-04-07T10:41:53.356Z,16.58
2023-04-07T10:44:51.498Z,18.40
2023-04-07T10:47:19.808Z,11.20
2023-04-07T10:50:18.843Z,10.85
2023-04-07T10:52:50.462Z,15.40
2023-04-07T10:55:46.339Z,12.05
2023-04-07T10:58:18.181Z,18.80
2023-04-07T11:01:22.930Z,20.95
2023-04-07T11:04:02.523Z,24.67
2023-04-07T11:06:31.688Z,17.90
2023-04-07T11:09:01.685Z,14.77
2023-04-07T11:11:43.338Z,17.92
2023-04-07T11:14:15.729Z,10.93
2023-04-07T11:16:45.929Z,14.10
2023-04-07T11:19:14.373Z,9.00
2023-04-07T11:21:45.356Z,12.77
2023-04-07T11:24:33.946Z,12.75
2023-04-07T11:27:03.680Z,17.13
2023-04-07T11:29:33.130Z,14.02
2023-04-07T11:32:03.591Z,8.70
2023-04-07T11:34:33.364Z,9.70
2023-04-07T11:37:21.361Z,10.68
2023-04-07T11:39:54.957Z,12.15
2023-04-07T11:42:34.599Z,10.10
2023-04-07T11:45:10.809Z,8.35
2023-04-07T11:47:41.192Z,9.70
2023-04-07T11:50:12.175Z,9.65
2023-04-07T11:52:43.832Z,12.88
2023-04-07T11:55:22.474Z,11.88
2023-04-07T11:57:52.467Z,14.00
2023-04-07T12:00:22.375Z,9.55
2023-04-07T12:02:51.551Z,11.65
2023-04-07T12:05:20.217Z,14.32
2023-04-07T12:07:55.698Z,18.27
2023-04-07T12:10:27.174Z,11.52
2023-04-07T12:12:56.968Z,14.95
2023-04-07T12:15:27.475Z,8.98
2023-04-07T12:17:55.887Z,10.60
2023-04-07T12:20:24.571Z,9.18
2023-04-07T12:22:56.530Z,9.60
2023-04-07T12:25:27.588Z,13.27
2023-04-07T12:27:56.357Z,11.45
2023-04-07T12:30:24.832Z,13.02
2023-04-07T12:32:53.625Z,18.38
2023-04-07T12:35:23.029Z,22.85
2023-04-07T12:37:52.058Z,14.85
2023-04-07T12:40:21.340Z,12.68
2023-04-07T12:42:51.938Z,15.32
2023-04-07T12:45:24.131Z,15.43
2023-04-07T12:47:53.866Z,21.33
2023-04-07T12:50:22.245Z,13.82
2023-04-07T12:52:51.373Z,13.95
2023-04-07T12:55:19.923Z,19.88
2023-04-07T12:57:48.431Z,17.92
2023-04-07T13:00:21.407Z,20.85
2023-04-07T13:02:50.092Z,19.08
2023-04-07T13:05:19.719Z,22.63
2023-04-07T13:07:49.705Z,29.20
2023-04-07T13:10:19.269Z,23.75
2023-04-07T13:12:47.740Z,21.65
2023-04-07T13:15:17.637Z,30.15
2023-04-07T13:17:46.703Z,30.35
2023-04-07T13:20:19.799Z,28.58
2023-04-07T13:23:02.775Z,29.75
2023-04-07T13:25:34.224Z,28.63
2023-04-07T13:28:02.937Z,25.17
2023-04-07T13:30:33.227Z,28.38
2023-04-07T13:33:02.184Z,29.67
2023-04-07T13:35:33.830Z,20.98
2023-04-07T13:38:02.674Z,28.08
2023-04-07T13:40:33.032Z,22.33
2023-04-07T13:43:01.738Z,19.48
2023-04-07T13:45:30.084Z,24.23
2023-04-07T13:48:00.360Z,26.95
2023-04-07T13:50:29.287Z,27.23
2023-04-07T13:52:58.079Z,26.25
2023-04-07T13:55:26.552Z,24.55
2023-04-07T13:57:55.481Z,27.73
2023-04-07T14:00:24.235Z,28.38
2023-04-07T14:02:53.013Z,29.00
2023-04-07T14:05:23.067Z,28.00
2023-04-07T14:07:52.082Z,20.48
2023-04-07T14:10:20.715Z,29.10
2023-04-07T14:12:49.260Z,27.20
2023-04-07T14:15:18.456Z,31.27
2023-04-07T14:17:47.048Z,23.95
2023-04-07T14:20:15.886Z,27.55
2023-04-07T14:22:45.658Z,29.58
2023-04-07T14:25:14.074Z,31.15
2023-04-07T14:27:42.484Z,25.73
2023-04-07T14:30:12.911Z,23.90
2023-04-07T14:32:41.640Z,24.15
2023-04-07T14:35:11.230Z,22.95
2023-04-07T14:37:40.008Z,27.77
2023-04-07T14:40:12.108Z,30.85
2023-04-07T14:42:43.629Z,25.48
2023-04-07T14:45:13.552Z,28.85
2023-04-07T14:47:41.813Z,27.08
2023-04-07T14:50:14.142Z,28.08
2023-04-07T14:52:43.561Z,32.30
2023-04-07T14:55:13.976Z,29.58
2023-04-07T14:57:42.443Z,24.25
2023-04-07T15:00:12.282Z,32.20
2023-04-07T15:02:41.080Z,25.48
2023-04-07T15:05:10.659Z,29.52
2023-04-07T15:07:39.095Z,32.30
2023-04-07T15:10:08.576Z,31.70
2023-04-07T15:12:38.594Z,34.60
2023-04-07T15:15:10.161Z,31.13
2023-04-07T15:17:44.264Z,26.63
2023-04-07T15:20:14.045Z,34.05
2023-04-07T15:22:42.598Z,31.90
2023-04-07T15:25:11.553Z,33.45
2023-04-07T15:27:41.392Z,29.60
2023-04-07T15:30:21.810Z,30.98
2023-04-07T15:33:01.915Z,29.52
2023-04-07T15:35:31.945Z,32.55
2023-04-07T15:38:01.602Z,30.83
2023-04-07T15:40:36.926Z,31.20
2023-04-07T15:43:10.725Z,30.40
2023-04-07T15:45:43.705Z,31.38
2023-04-07T15:48:15.411Z,28.02
2023-04-07T15:50:44.092Z,28.27
2023-04-07T15:53:12.943Z,35.63
2023-04-07T15:55:42.107Z,30.33
2023-04-07T15:58:12.393Z,37.92
2023-04-07T16:00:41.320Z,31.95
2023-04-07T16:03:10.005Z,34.83
2023-04-07T16:05:39.778Z,35.50
2023-04-07T16:08:08.969Z,29.92
2023-04-07T16:10:37.473Z,37.28
2023-04-07T16:13:05.975Z,40.40
2023-04-07T16:15:40.496Z,36.17
2023-04-07T16:18:12.723Z,38.58
2023-04-07T16:20:41.919Z,50.08
2023-04-07T16:23:11.112Z,46.97
2023-04-07T16:25:40.007Z,39.28
2023-04-07T16:28:08.790Z,40.90
2023-04-07T16:30:39.143Z,39.45
2023-04-07T16:33:07.649Z,37.85
2023-04-07T16:35:36.076Z,45.22
2023-04-07T16:38:06.437Z,39.75
2023-04-07T16:40:35.408Z,43.45
2023-04-07T16:43:04.058Z,44.50
2023-04-07T16:45:32.724Z,42.53
2023-04-07T16:48:03.873Z,39.35
2023-04-07T16:50:32.445Z,33.35
2023-04-07T16:53:00.888Z,42.35
2023-04-07T16:55:29.144Z,34.78
2023-04-07T16:57:57.395Z,47.22
2023-04-07T17:00:27.454Z,44.67
2023-04-07T17:02:56.128Z,44.35
2023-04-07T17:05:26.578Z,46.75
2023-04-07T17:07:56.151Z,46.08
2023-04-07T17:10:25.515Z,44.70
2023-04-07T17:12:56.205Z,45.92
2023-04-07T17:15:24.839Z,46.53
2023-04-07T17:17:54.064Z,43.35
2023-04-07T17:20:23.548Z,41.97
2023-04-07T17:22:57.844Z,42.15
2023-04-07T17:25:26.570Z,42.70
2023-04-07T17:27:55.489Z,47.30
2023-04-07T17:30:23.840Z,42.70
2023-04-07T17:32:53.566Z,48.63
2023-04-07T17:35:22.760Z,45.80
2023-04-07T17:37:53.538Z,54.25
2023-04-07T17:40:22.400Z,57.75
2023-04-07T17:42:50.899Z,44.20
2023-04-07T17:45:19.192Z,71.55
2023-04-07T17:47:48.693Z,55.33
2023-04-07T17:50:17.578Z,54.80
2023-04-07T17:52:48.210Z,54.20
2023-04-07T17:55:22.635Z,56.95
2023-04-07T17:57:53.593Z,55.15
2023-04-07T18:00:23.815Z,52.65
2023-04-07T18:02:53.794Z,57.90
2023-04-07T18:05:23.558Z,56.22
2023-04-07T18:07:55.198Z,54.08
2023-04-07T18:10:26.074Z,46.47
2023-04-07T18:12:55.267Z,59.85
2023-04-07T18:15:27.935Z,50.97
2023-04-07T18:17:57.127Z,58.15
2023-04-07T18:20:26.018Z,58.00
2023-04-07T18:22:55.771Z,51.67
2023-04-07T18:25:27.956Z,52.80
2023-04-07T18:27:58.947Z,54.72
2023-04-07T18:30:27.323Z,50.88
2023-04-07T18:32:56.309Z,52.92
2023-04-07T18:35:25.822Z,61.92
2023-04-07T18:37:55.088Z,51.17
2023-04-07T18:40:28.978Z,57.25
2023-04-07T18:42:58.295Z,49.33
2023-04-07T18:45:27.350Z,51.17
2023-04-07T18:47:55.840Z,61.50
2023-04-07T18:50:24.652Z,53.50
2023-04-07T18:52:55.830Z,53.08
2023-04-07T18:55:26.170Z,54.67
2023-04-07T18:58:04.710Z,50.72
2023-04-07T19:00:33.537Z,49.50
2023-04-07T19:03:02.519Z,53.53
2023-04-07T19:05:31.787Z,55.25
2023-04-07T19:08:01.154Z,54.20
2023-04-07T19:10:31.349Z,53.58
2023-04-07T19:13:00.772Z,55.08
2023-04-07T19:15:30.351Z,62.72
2023-04-07T19:17:59.208Z,55.83
2023-04-07T19:20:28.153Z,52.60
2023-04-07T19:22:57.572Z,63.22
2023-04-07T19:25:27.453Z,62.25
2023-04-07T19:28:00.468Z,62.17
2023-04-07T19:30:30.567Z,65.80
2023-04-07T19:32:58.992Z,63.47
2023-04-07T19:35:27.572Z,52.17
2023-04-07T19:38:01.003Z,50.28
2023-04-07T19:40:31.521Z,59.65
2023-04-07T19:43:01.640Z,57.65
2023-04-07T19:45:30.145Z,62.55
2023-04-07T19:47:59.246Z,63.17
2023-04-07T19:50:28.532Z,57.42
2023-04-07T19:52:57.053Z,59.75
2023-04-07T19:55:26.034Z,65.18
2023-04-07T19:57:57.638Z,61.58
2023-04-07T20:00:30.654Z,67.35
2023-04-07T20:03:01.762Z,62.45
2023-04-07T20:05:30.813Z,63.20
2023-04-07T20:07:59.501Z,76.07
2023-04-07T20:10:28.243Z,71.47
2023-04-07T20:12:57.210Z,66.22
2023-04-07T20:15:28.859Z,70.25
2023-04-07T20:17:57.629Z,67.35
2023-04-07T20:20:26.359Z,67.88
2023-04-07T20:22:54.840Z,68.90
2023-04-07T20:25:23.970Z,69.13
2023-04-07T20:27:52.555Z,66.15
2023-04-07T20:30:21.399Z,80.22
2023-04-07T20:33:00.242Z,63.58
2023-04-07T20:35:28.866Z,84.97
2023-04-07T20:37:59.827Z,69.32
2023-04-07T20:40:28.537Z,66.47
2023-04-07T20:42:56.955Z,76.35
2023-04-07T20:45:26.830Z,72.68
2023-04-07T20:47:57.186Z,69.43
2023-04-07T20:50:25.841Z,72.60
2023-04-07T20:52:54.481Z,74.18
2023-04-07T20:55:22.867Z,68.75
2023-04-07T20:57:53.673Z,62.35
2023-04-07T21:00:22.960Z,61.97
2023-04-07T21:02:51.681Z,67.75
2023-04-07T21:05:21.670Z,79.78
2023-04-07T21:07:50.217Z,73.88
2023-04-07T21:10:18.715Z,67.20
2023-04-07T21:12:48.183Z,70.85
2023-04-07T21:15:16.779Z,65.72
2023-04-07T21:17:46.065Z,70.82
2023-04-07T21:20:14.945Z,78.88
2023-04-07T21:22:44.605Z,57.08
2023-04-07T21:25:12.914Z,56.45
2023-04-07T21:27:41.627Z,55.25
2023-04-07T21:30:13.924Z,53.67
2023-04-07T21:32:42.394Z,57.00
2023-04-07T21:35:11.252Z,56.28
2023-04-07T21:37:39.699Z,61.10
2023-04-07T21:40:11.192Z,60.45
2023-04-07T21:42:39.695Z,62.25
2023-04-07T21:45:10.666Z,69.65
2023-04-07T21:47:39.299Z,71.32
2023-04-07T21:50:09.363Z,69.38
2023-04-07T21:52:38.464Z,61.65
2023-04-07T21:55:11.435Z,70.78
2023-04-07T21:57:39.898Z,78.72
2023-04-07T22:00:10.703Z,66.38
2023-04-07T22:02:39.363Z,70.65
2023-04-07T22:05:08.359Z,73.25
2023-04-07T22:07:37.461Z,68.53
2023-04-07T22:10:06.858Z,73.72
2023-04-07T22:12:36.786Z,72.80
2023-04-07T22:15:06.619Z,76.85
2023-04-07T22:17:35.730Z,59.28
2023-04-07T22:20:05.150Z,62.25
2023-04-07T22:22:33.513Z,64.85
2023-04-07T22:25:01.809Z,58.97
2023-04-07T22:27:30.108Z,65.70
2023-04-07T22:29:59.759Z,61.63
2023-04-07T22:32:28.146Z,55.08
2023-04-07T22:34:56.665Z,61.45
2023-04-07T22:37:25.110Z,65.43
2023-04-07T22:39:53.357Z,62.13
2023-04-07T22:42:21.720Z,69.43
2023-04-07T22:44:50.015Z,89.00
2023-04-07T22:47:19.847Z,88.20
2023-04-07T22:49:48.212Z,109.90
2023-04-07T22:52:16.581Z,116.57
2023-04-07T22:54:44.945Z,128.23
2023-04-07T22:57:13.401Z,119.63
2023-04-07T22:59:41.813Z,106.43
2023-04-07T23:02:10.857Z,229.23
2023-04-07T23:04:41.152Z,155.32
2023-04-07T23:07:09.660Z,159.98
2023-04-07T23:09:38.460Z,172.50
2023-04-07T23:12:06.928Z,245.68
2023-04-07T23:14:35.378Z,226.98
2023-04-07T23:17:03.728Z,194.88
2023-04-07T23:19:32.224Z,260.65
2023-04-07T23:22:03.661Z,277.23
2023-04-07T23:24:32.009Z,242.32
2023-04-07T23:27:00.836Z,258.77
2023-04-07T23:29:29.567Z,354.13
2023-04-07T23:31:57.997Z,285.33
2023-04-07T23:34:26.576Z,368.65
2023-04-07T23:36:54.980Z,333.55
2023-04-07T23:39:25.494Z,298.67
2023-04-07T23:41:53.654Z,303.58
2023-04-07T23:44:22.100Z,268.73
2023-04-07T23:46:50.453Z,280.52
2023-04-07T23:49:19.238Z,232.60
2023-04-07T23:51:47.826Z,176.38
2023-04-07T23:54:16.393Z,225.20
2023-04-07T23:56:46.715Z,167.48
2023-04-07T23:59:15.080Z,173.10
